Time;durP1;ratioP1;P1;durP2;ratioP2;P2;SDS_P1;SDS_P2;PMS_P1;PMS_P2;Temp;Humidity;BMP_temperature;BMP_pressure;BME280_temperature;BME280_humidity;BME280_pressure;Samples;Min_cycle;Max_cycle;Signal;HPM_P1;HPM_P2
2021/10/19 00:00:50;;;;;;;30.75;16.65;;;;;;;10.64;100.00;98487.63;4905548;29;20058;-89
2021/10/19 00:03:16;;;;;;;30.40;17.65;;;;;;;10.53;100.00;98502.47;4953276;29;20542;-89
2021/10/19 00:05:41;;;;;;;31.08;17.42;;;;;;;10.45;100.00;98501.97;4921604;29;20039;-90
2021/10/19 00:08:07;;;;;;;29.52;16.83;;;;;;;10.38;100.00;98504.03;4953566;29;20048;-89
2021/10/19 00:10:33;;;;;;;30.17;18.15;;;;;;;10.30;100.00;98509.72;4921969;29;20034;-89
2021/10/19 00:12:59;;;;;;;30.48;18.20;;;;;;;10.24;100.00;98509.16;4921849;29;20067;-90
2021/10/19 00:15:24;;;;;;;32.13;18.98;;;;;;;10.25;100.00;98510.88;4937512;29;20027;-88
2021/10/19 00:17:50;;;;;;;32.00;18.83;;;;;;;10.29;100.00;98515.16;4920994;29;20028;-89
2021/10/19 00:20:17;;;;;;;38.25;20.88;;;;;;;10.40;100.00;98525.38;4936998;29;20507;-90
2021/10/19 00:22:43;;;;;;;33.50;21.08;;;;;;;10.42;100.00;98515.47;4937068;29;20028;-88
2021/10/19 00:25:14;;;;;;;41.25;22.15;;;;;;;10.54;100.00;98523.81;4904674;29;20467;-89
2021/10/19 00:27:40;;;;;;;36.30;19.58;;;;;;;10.46;100.00;98515.25;4952163;29;20042;-88
2021/10/19 00:30:07;;;;;;;40.63;21.40;;;;;;;10.57;100.00;98514.78;4905083;29;20040;-89
2021/10/19 00:32:33;;;;;;;39.55;21.48;;;;;;;10.51;100.00;98512.38;4902144;29;20488;-90
2021/10/19 00:34:59;;;;;;;38.33;22.38;;;;;;;10.46;100.00;98515.25;4934662;29;20031;-89
2021/10/19 00:37:24;;;;;;;40.30;22.52;;;;;;;10.42;100.00;98520.81;4921368;29;20032;-89
2021/10/19 00:40:17;;;;;;;42.13;22.55;;;;;;;10.38;100.00;98511.19;4905530;29;20489;-90
2021/10/19 00:49:39;;;;;;;35.33;18.55;;;;;;;9.97;100.00;98484.47;4939762;29;20033;-92
2021/10/19 00:52:05;;;;;;;34.15;19.55;;;;;;;10.05;100.00;98501.06;4920830;29;20503;-88
2021/10/19 00:54:30;;;;;;;33.75;18.73;;;;;;;10.13;100.00;98506.06;4904836;29;20181;-89
2021/10/19 00:56:57;;;;;;;29.05;17.42;;;;;;;10.16;100.00;98522.88;4936298;29;20594;-88
2021/10/19 00:59:25;;;;;;;35.05;18.98;;;;;;;10.24;100.00;98534.06;4904602;29;20044;-87
2021/10/19 01:01:51;;;;;;;37.33;19.63;;;;;;;10.19;100.00;98527.19;4903812;29;20498;-88
2021/10/19 01:04:16;;;;;;;38.08;21.95;;;;;;;10.11;100.00;98522.19;4918904;29;20091;-89
2021/10/19 01:06:42;;;;;;;34.67;19.88;;;;;;;10.11;100.00;98526.66;4916125;29;20488;-89
2021/10/19 01:09:09;;;;;;;38.90;21.30;;;;;;;10.08;100.00;98530.34;4935539;29;20128;-89
2021/10/19 01:11:35;;;;;;;32.50;18.70;;;;;;;9.94;100.00;98522.03;4920943;29;20098;-88
2021/10/19 01:14:00;;;;;;;32.47;18.42;;;;;;;9.87;100.00;98520.59;4952735;29;20027;-89
2021/10/19 01:16:26;;;;;;;30.85;19.10;;;;;;;9.84;100.00;98526.06;4945587;29;20031;-89
2021/10/19 01:18:51;;;;;;;29.20;18.05;;;;;;;9.81;100.00;98523.53;4921538;29;20038;-88
2021/10/19 01:21:17;;;;;;;27.25;17.25;;;;;;;9.86;100.00;98529.53;4919765;29;20054;-90
2021/10/19 01:23:43;;;;;;;27.88;15.88;;;;;;;9.78;100.00;98515.66;4936891;29;20078;-89
2021/10/19 01:26:09;;;;;;;30.33;16.92;;;;;;;9.83;100.00;98521.66;4904333;29;20103;-89
2021/10/19 01:28:40;;;;;;;29.13;16.73;;;;;;;9.75;100.00;98518.44;4919173;29;20178;-89
2021/10/19 01:31:06;;;;;;;32.50;17.65;;;;;;;9.78;100.00;98526.34;4951218;29;20078;-89
2021/10/19 01:33:32;;;;;;;33.35;16.73;;;;;;;9.80;100.00;98532.47;4920026;29;20190;-90
2021/10/19 01:35:58;;;;;;;26.40;16.90;;;;;;;9.75;100.00;98537.16;4920496;29;20126;-89
2021/10/19 01:38:26;;;;;;;28.17;17.00;;;;;;;9.71;100.00;98535.53;4904116;29;20050;-90
2021/10/19 01:40:53;;;;;;;31.30;18.52;;;;;;;9.69;100.00;98537.41;4951941;29;20467;-88
2021/10/19 01:43:21;;;;;;;28.25;18.23;;;;;;;9.55;100.00;98534.44;4920555;29;20091;-89
2021/10/19 01:45:51;;;;;;;31.80;17.35;;;;;;;9.47;100.00;98531.22;4936090;29;20031;-90
2021/10/19 01:48:17;;;;;;;32.33;18.80;;;;;;;9.43;100.00;98548.31;4919678;29;20028;-89
2021/10/19 01:50:43;;;;;;;30.58;18.58;;;;;;;9.33;100.00;98537.13;4919985;29;20039;-89
2021/10/19 01:53:09;;;;;;;27.92;17.75;;;;;;;9.33;100.00;98549.59;4952218;29;20028;-91
2021/10/19 01:55:36;;;;;;;36.55;19.60;;;;;;;9.30;100.00;98547.94;4951960;29;20066;-91
2021/10/19 01:58:02;;;;;;;44.63;21.58;;;;;;;9.34;100.00;98552.22;4935907;29;20119;-91
2021/10/19 02:00:28;;;;;;;43.08;20.10;;;;;;;9.21;100.00;98546.50;4919773;29;20091;-89
2021/10/19 02:02:53;;;;;;;32.90;19.30;;;;;;;9.26;100.00;98546.31;4951383;29;20032;-90
2021/10/19 02:05:19;;;;;;;35.72;21.10;;;;;;;9.26;100.00;98552.53;4951037;29;20059;-89
2021/10/19 02:07:45;;;;;;;29.10;19.33;;;;;;;9.21;100.00;98543.84;4951465;29;20054;-90
2021/10/19 02:10:12;;;;;;;31.27;19.27;;;;;;;9.30;100.00;98549.72;4935165;29;20046;-90
2021/10/19 02:12:38;;;;;;;32.58;20.25;;;;;;;9.10;100.00;98538.09;4935168;29;20622;-91
2021/10/19 02:15:08;;;;;;;34.85;21.15;;;;;;;9.04;100.00;98549.00;4919864;29;20036;-89
2021/10/19 02:17:34;;;;;;;38.53;21.02;;;;;;;9.04;100.00;98550.78;4919082;29;20058;-89
2021/10/19 02:20:03;;;;;;;45.67;21.42;;;;;;;8.98;100.00;98545.72;4919797;29;20042;-90
2021/10/19 02:22:30;;;;;;;43.97;21.52;;;;;;;8.87;100.00;98543.44;4951755;29;20097;-90
2021/10/19 02:24:57;;;;;;;38.17;21.20;;;;;;;8.86;100.00;98544.38;4920400;29;20412;-89
2021/10/19 02:27:22;;;;;;;41.83;22.38;;;;;;;8.83;100.00;98540.97;4935054;29;20041;-88
2021/10/19 02:29:48;;;;;;;38.35;22.00;;;;;;;8.74;100.00;98544.84;4935505;29;20028;-89
2021/10/19 02:32:14;;;;;;;47.53;23.55;;;;;;;8.63;100.00;98536.41;4919594;29;20055;-90
2021/10/19 02:34:40;;;;;;;48.15;24.60;;;;;;;8.55;100.00;98534.00;4934899;29;20027;-90
2021/10/19 02:37:05;;;;;;;47.08;23.00;;;;;;;8.57;100.00;98534.84;4934599;29;20108;-90
2021/10/19 02:39:31;;;;;;;39.17;23.05;;;;;;;8.46;100.00;98534.34;4950457;29;20110;-90
2021/10/19 02:41:56;;;;;;;48.28;23.35;;;;;;;8.41;100.00;98540.78;4951398;29;20389;-90
2021/10/19 02:44:22;;;;;;;47.58;24.45;;;;;;;8.36;100.00;98534.78;4919164;29;20114;-89
2021/10/19 02:46:47;;;;;;;45.83;23.85;;;;;;;8.30;100.00;98543.88;4918922;29;20090;-88
2021/10/19 02:49:13;;;;;;;47.08;21.58;;;;;;;8.29;100.00;98539.47;4918590;29;20031;-89
2021/10/19 02:51:39;;;;;;;38.88;22.23;;;;;;;8.27;100.00;98549.28;4951011;29;20483;-90
2021/10/19 02:54:04;;;;;;;41.75;23.58;;;;;;;8.32;100.00;98551.81;4934687;29;20031;-90
2021/10/19 02:56:30;;;;;;;49.83;25.00;;;;;;;8.30;100.00;98551.00;4918981;29;20031;-90
2021/10/19 02:58:56;;;;;;;51.67;25.88;;;;;;;8.22;100.00;98545.91;4950473;29;20118;-89
2021/10/19 03:01:21;;;;;;;44.58;25.30;;;;;;;8.17;100.00;98555.88;4950692;29;20043;-89
2021/10/19 03:03:47;;;;;;;57.22;30.40;;;;;;;8.09;100.00;98555.28;4949815;29;20047;-88
2021/10/19 03:06:12;;;;;;;77.82;34.67;;;;;;;8.03;100.00;98556.34;4918573;29;20503;-88
2021/10/19 03:08:38;;;;;;;76.38;34.00;;;;;;;8.03;100.00;98556.34;4934829;29;20032;-90
2021/10/19 03:11:04;;;;;;;63.47;33.00;;;;;;;8.00;100.00;98558.25;4918186;29;20393;-90
2021/10/19 03:13:30;;;;;;;59.45;30.30;;;;;;;7.95;100.00;98563.75;4919465;29;20042;-90
2021/10/19 03:15:56;;;;;;;87.72;37.78;;;;;;;7.90;100.00;98572.84;4918521;29;20024;-89
2021/10/19 03:18:22;;;;;;;75.05;35.60;;;;;;;7.87;100.00;98570.28;4919046;29;20070;-86
2021/10/19 03:20:48;;;;;;;50.55;27.40;;;;;;;7.82;100.00;98566.88;4919051;29;20086;-89
2021/10/19 03:23:13;;;;;;;47.95;25.45;;;;;;;7.72;100.00;98566.34;4935394;29;20023;-88
2021/10/19 03:25:39;;;;;;;47.78;27.25;;;;;;;7.77;100.00;98576.84;4919248;29;20032;-88
2021/10/19 03:28:05;;;;;;;56.13;27.42;;;;;;;7.71;100.00;98574.38;4919674;29;20023;-88
2021/10/19 03:30:38;;;;;;;55.70;26.65;;;;;;;7.56;100.00;98559.81;4950870;29;20031;-89
2021/10/19 03:33:03;;;;;;;50.40;26.27;;;;;;;7.57;100.00;98557.06;4902914;29;20030;-89
2021/10/19 03:35:29;;;;;;;51.67;27.40;;;;;;;7.51;100.00;98567.06;4917205;29;20031;-76
2021/10/19 03:37:55;;;;;;;51.72;27.85;;;;;;;7.53;100.00;98573.22;4942884;29;20035;-89
2021/10/19 03:40:22;;;;;;;48.63;24.63;;;;;;;7.54;100.00;98565.16;4922402;29;20127;-87
2021/10/19 03:42:48;;;;;;;46.92;25.67;;;;;;;7.44;100.00;98571.75;4949639;29;20110;-87
2021/10/19 03:45:15;;;;;;;49.95;24.83;;;;;;;7.41;100.00;98570.97;4917740;29;20023;-87
2021/10/19 03:47:41;;;;;;;57.92;28.27;;;;;;;7.36;100.00;98573.75;4917408;29;20455;-75
2021/10/19 03:50:07;;;;;;;62.10;33.08;;;;;;;7.29;100.00;98563.38;4950649;29;20028;-88
2021/10/19 03:52:33;;;;;;;60.42;30.95;;;;;;;7.25;100.00;98575.03;4950286;29;20074;-89
2021/10/19 03:54:59;;;;;;;42.58;24.75;;;;;;;7.20;100.00;98572.50;4918311;29;20027;-89
2021/10/19 03:57:24;;;;;;;44.35;24.48;;;;;;;7.16;100.00;98572.69;4938848;29;20040;-91
2021/10/19 03:59:50;;;;;;;44.03;23.73;;;;;;;7.05;100.00;98567.69;4937035;29;20521;-88
2021/10/19 04:06:15;;;;;;;42.92;23.50;;;;;;;7.04;100.00;98596.06;4919103;29;20063;-93
2021/10/19 04:08:41;;;;;;;48.03;24.27;;;;;;;7.02;100.00;98597.91;4948590;29;20051;-74
2021/10/19 04:11:06;;;;;;;45.85;24.10;;;;;;;6.99;100.00;98595.34;4949344;29;20040;-83
2021/10/19 04:13:32;;;;;;;46.40;24.23;;;;;;;6.90;100.00;98592.09;4917102;29;20518;-76
2021/10/19 04:15:58;;;;;;;52.78;25.25;;;;;;;6.91;100.00;98602.72;4917148;29;20035;-76
2021/10/19 04:18:23;;;;;;;47.65;24.58;;;;;;;6.90;100.00;98595.63;4932834;29;20035;-77
2021/10/19 04:20:49;;;;;;;46.92;25.42;;;;;;;6.91;100.00;98602.72;4939128;29;20024;-90
2021/10/19 04:23:14;;;;;;;46.88;25.10;;;;;;;6.84;100.00;98606.47;4922540;29;20035;-90
2021/10/19 04:25:40;;;;;;;58.70;29.70;;;;;;;6.80;100.00;98612.78;4934652;29;20036;-83
2021/10/19 04:28:05;;;;;;;61.22;31.88;;;;;;;6.84;100.00;98617.09;4933675;29;20406;-90
2021/10/19 04:30:32;;;;;;;49.95;28.40;;;;;;;6.80;100.00;98607.47;4926653;29;20032;-90
2021/10/19 04:32:58;;;;;;;55.17;27.15;;;;;;;6.82;100.00;98608.31;4953265;29;20444;-90
2021/10/19 04:35:24;;;;;;;52.17;26.80;;;;;;;6.79;100.00;98613.72;4922370;29;20127;-90
2021/10/19 04:37:50;;;;;;;77.00;29.23;;;;;;;6.77;100.00;98619.97;4937641;29;20503;-90
2021/10/19 04:40:15;;;;;;;51.70;28.98;;;;;;;6.84;100.00;98618.88;4953629;29;20023;-89
2021/10/19 04:42:41;;;;;;;52.33;26.90;;;;;;;6.81;100.00;98625.16;4923234;29;20024;-89
2021/10/19 04:45:08;;;;;;;58.60;28.88;;;;;;;6.79;100.00;98624.34;4955097;29;20066;-90
2021/10/19 04:47:34;;;;;;;71.15;33.13;;;;;;;6.77;100.00;98622.63;4954892;29;20090;-89
2021/10/19 05:00:18;;;;;;;50.97;26.90;;;;;;;6.52;100.00;98614.53;4946550;29;20035;-90
2021/10/19 05:02:48;;;;;;;48.90;27.35;;;;;;;6.61;100.00;98635.53;4955823;29;20042;-88
2021/10/19 05:11:50;;;;;;;60.15;27.67;;;;;;;6.63;100.00;98636.34;5655925;23;20046;-91
2021/10/19 05:24:45;;;;;;;70.65;32.47;;;;;;;6.59;100.00;98602.78;5510867;23;20054;-90
2021/10/19 05:27:11;;;;;;;65.13;33.40;;;;;;;6.98;100.00;98662.75;4986203;28;20042;-88
2021/10/19 05:39:57;;;;;;;67.35;32.55;;;;;;;11.24;100.00;98676.66;5796613;23;20528;-91
2021/10/19 05:42:23;;;;;;;70.93;37.47;;;;;;;12.21;99.53;98642.41;4998608;28;20034;-91
2021/10/19 05:48:11;;;;;;;59.85;30.25;;;;;;;14.74;75.47;98691.88;5028491;28;20559;-89
2021/10/19 06:00:57;;;;;;;51.10;27.02;;;;;;;17.83;55.71;98716.16;5347910;23;20506;-91
2021/10/19 06:14:15;;;;;;;46.03;21.48;;;;;;;20.73;46.98;98728.56;4845590;29;20067;-90
2021/10/19 06:16:40;;;;;;;43.15;26.80;;;;;;;21.00;46.20;98723.50;4830843;29;20116;-90
2021/10/19 06:19:06;;;;;;;70.72;39.97;;;;;;;21.45;45.29;98718.66;4926325;28;20551;-91
2021/10/19 06:21:32;;;;;;;59.00;35.33;;;;;;;21.75;44.37;98721.41;4964692;28;20568;-90
2021/10/19 06:23:57;;;;;;;54.60;30.83;;;;;;;21.63;44.29;98727.94;4963801;28;20104;-91
2021/10/19 06:26:23;;;;;;;41.17;26.80;;;;;;;22.17;42.79;98721.34;4964998;28;20516;-91
2021/10/19 06:28:48;;;;;;;38.97;27.42;;;;;;;22.13;43.22;98729.78;4964150;28;20067;-90
2021/10/19 06:41:09;;;;;;;49.05;29.90;;;;;;;21.43;44.75;98697.03;4952041;29;20124;-91
2021/10/19 07:03:42;;;;;;;39.20;25.67;;;;;;;20.77;46.90;98763.50;4980214;28;20088;-93
2021/10/19 07:06:08;;;;;;;38.88;25.45;;;;;;;20.74;47.22;98755.63;4975889;28;20011;-92
2021/10/19 07:08:34;;;;;;;43.72;23.65;;;;;;;21.39;45.15;98763.63;4964456;28;20019;-92
2021/10/19 07:11:34;;;;;;;34.92;22.45;;;;;;;21.49;44.79;98750.97;4965118;28;20101;-94
2021/10/19 07:14:00;;;;;;;31.33;19.25;;;;;;;21.52;44.77;98753.41;4966099;28;20058;-92
2021/10/19 07:16:26;;;;;;;32.40;18.95;;;;;;;20.68;45.17;98720.78;4963674;28;20031;-93
2021/10/19 07:18:57;;;;;;;31.08;16.70;;;;;;;21.27;45.49;98770.16;4982444;28;20038;-92
2021/10/19 07:21:32;;;;;;;31.67;16.67;;;;;;;21.41;45.15;98737.13;4989241;28;20027;-91
2021/10/19 07:27:20;;;;;;;24.23;14.80;;;;;;;21.77;44.74;98743.97;4990089;28;20038;-93
2021/10/19 07:29:46;;;;;;;33.13;16.48;;;;;;;22.17;43.76;98762.22;4974656;28;20413;-93
2021/10/19 07:32:11;;;;;;;26.15;17.30;;;;;;;22.29;42.82;98712.91;4988235;28;20027;-93
2021/10/19 07:34:37;;;;;;;33.35;18.23;;;;;;;23.26;43.45;98763.03;4976768;28;20037;-93
2021/10/19 07:42:13;;;;;;;26.17;17.33;;;;;;;24.50;40.55;98742.69;5220455;22;20054;-92
2021/10/19 07:44:39;;;;;;;30.25;17.35;;;;;;;24.62;38.10;98725.91;5001304;28;20044;-93
2021/10/19 07:47:05;;;;;;;28.73;19.10;;;;;;;25.02;37.60;98732.84;5011223;28;20060;-92
2021/10/19 07:53:04;;;;;;;27.70;18.42;;;;;;;23.99;39.23;98724.94;5544437;23;20057;-93
2021/10/19 07:55:33;;;;;;;37.17;20.10;;;;;;;24.73;38.32;98733.88;5001116;28;20087;-91
2021/10/19 07:57:59;;;;;;;28.63;18.55;;;;;;;24.88;37.81;98728.78;5009397;28;20018;-92
2021/10/19 08:00:27;;;;;;;29.58;20.08;;;;;;;24.86;38.53;98736.28;4995919;28;20083;-92
2021/10/19 08:02:54;;;;;;;28.00;20.00;;;;;;;24.16;38.81;98726.88;5006059;28;20116;-91
2021/10/19 08:05:20;;;;;;;32.45;20.08;;;;;;;24.09;38.76;98731.19;5004502;28;20030;-92
2021/10/19 08:07:51;;;;;;;33.25;19.38;;;;;;;24.66;38.56;98731.94;4997785;28;20500;-75
2021/10/19 08:10:19;;;;;;;37.17;21.20;;;;;;;24.64;38.85;98731.22;5000897;28;20025;-75
2021/10/19 08:12:45;;;;;;;44.22;21.30;;;;;;;24.49;38.82;98721.78;5015957;28;20116;-76
2021/10/19 08:15:11;;;;;;;37.15;20.48;;;;;;;24.69;37.88;98728.88;4999367;28;20057;-80
2021/10/19 08:17:36;;;;;;;31.02;20.17;;;;;;;23.42;40.10;98741.47;5001692;28;20068;-81
2021/10/19 08:20:03;;;;;;;32.38;20.40;;;;;;;23.98;39.22;98734.13;4996323;28;20022;-81
2021/10/19 08:22:29;;;;;;;43.35;21.80;;;;;;;24.46;39.34;98728.44;4993422;28;20022;-82
2021/10/19 08:24:56;;;;;;;33.00;20.27;;;;;;;24.24;39.63;98734.34;4982753;28;20454;-80
2021/10/19 08:27:23;;;;;;;31.58;19.95;;;;;;;24.89;38.38;98730.47;5008758;28;20036;-81
2021/10/19 08:29:50;;;;;;;39.70;19.90;;;;;;;25.53;37.76;98732.13;4999859;28;20103;-80
2021/10/19 08:32:15;;;;;;;31.83;19.77;;;;;;;26.12;36.05;98723.91;5004438;28;20025;-80
2021/10/19 08:34:41;;;;;;;29.13;19.02;;;;;;;26.34;36.53;98722.50;4980005;28;20504;-79
2021/10/19 08:37:06;;;;;;;32.15;17.27;;;;;;;26.44;36.27;98722.38;4998057;28;20029;-81
2021/10/19 08:39:32;;;;;;;25.55;15.88;;;;;;;26.73;33.24;98706.34;5002773;28;20033;-80
2021/10/19 08:41:57;;;;;;;19.23;12.80;;;;;;;26.48;33.24;98704.56;4979745;28;20413;-79
2021/10/19 08:44:23;;;;;;;13.52;7.90;;;;;;;27.69;29.17;98699.19;5025431;28;20064;-80
2021/10/19 08:46:49;;;;;;;11.30;7.65;;;;;;;27.27;30.09;98694.75;4998691;28;20053;-80
2021/10/19 08:49:15;;;;;;;16.17;9.25;;;;;;;26.98;30.45;98686.13;5015378;28;20032;-80
2021/10/19 08:51:41;;;;;;;13.20;7.97;;;;;;;27.62;29.60;98679.81;4979659;28;20037;-80
2021/10/19 08:54:07;;;;;;;13.48;7.47;;;;;;;28.13;27.92;98667.47;5004971;28;20054;-80
2021/10/19 08:56:36;;;;;;;16.85;8.70;;;;;;;28.32;28.17;98672.56;4981079;28;20032;-79
2021/10/19 08:59:02;;;;;;;12.90;7.78;;;;;;;27.99;28.33;98670.94;4990676;28;20035;-79
2021/10/19 09:01:35;;;;;;;12.05;8.60;;;;;;;28.01;28.90;98679.88;4987086;28;20112;-80
2021/10/19 09:04:08;;;;;;;16.67;8.38;;;;;;;28.13;27.78;98675.72;4989469;28;20026;-79
2021/10/19 09:06:36;;;;;;;13.07;7.20;;;;;;;27.12;28.26;98679.97;4979285;28;20473;-81
2021/10/19 09:09:26;;;;;;;11.85;7.80;;;;;;;26.28;29.19;98673.78;4995570;28;20172;-78
2021/10/19 09:11:56;;;;;;;13.73;7.90;;;;;;;27.26;28.90;98679.28;4999484;28;20108;-80
2021/10/19 09:14:29;;;;;;;9.48;7.00;;;;;;;26.84;28.64;98679.44;5014954;28;20037;-78
2021/10/19 09:16:56;;;;;;;31.13;19.80;;;;;;;27.65;28.02;98668.47;4988715;28;20109;-78
2021/10/19 09:19:23;;;;;;;8.52;6.97;;;;;;;28.19;27.51;98658.50;4978627;28;20048;-79
2021/10/19 09:22:04;;;;;;;12.98;8.60;;;;;;;28.83;26.44;98639.91;4975963;28;20109;-78
2021/10/19 09:24:32;;;;;;;13.53;8.67;;;;;;;28.48;26.62;98655.97;5010444;28;20025;-79
2021/10/19 09:27:07;;;;;;;11.10;7.80;;;;;;;26.19;29.10;98653.69;4999653;28;20273;-78
2021/10/19 09:29:45;;;;;;;11.02;6.88;;;;;;;24.22;32.08;98646.97;5024639;28;20105;-77
2021/10/19 09:32:12;;;;;;;11.95;7.35;;;;;;;25.37;31.73;98664.31;5014744;28;20120;-79
2021/10/19 09:34:38;;;;;;;10.52;6.70;;;;;;;26.52;30.60;98662.03;5009914;28;20498;-79
2021/10/19 09:37:06;;;;;;;10.38;6.68;;;;;;;26.90;29.15;98662.28;5032492;28;20027;-79
2021/10/19 09:39:31;;;;;;;18.67;6.07;;;;;;;27.87;27.89;98656.69;5009163;28;20021;-80
2021/10/19 09:41:57;;;;;;;10.82;6.10;;;;;;;27.35;28.26;98648.00;5007699;28;20476;-78
2021/10/19 09:44:23;;;;;;;10.35;6.25;;;;;;;26.30;29.33;98658.84;4994732;28;20496;-79
2021/10/19 09:46:49;;;;;;;15.98;7.80;;;;;;;24.67;32.24;98655.13;5012285;28;20041;-78
2021/10/19 09:49:41;;;;;;;12.23;6.40;;;;;;;23.72;33.17;98656.53;4979338;28;20030;-83
2021/10/19 10:03:11;;;;;;;8.55;6.30;;;;;;;27.94;26.44;98597.19;4895789;29;20040;-79
2021/10/19 10:05:36;;;;;;;10.52;6.95;;;;;;;29.29;26.14;98627.81;4950175;28;20112;-80
2021/10/19 10:08:02;;;;;;;9.88;5.75;;;;;;;28.81;25.53;98617.19;4916694;29;20535;-79
2021/10/19 10:10:28;;;;;;;9.68;6.40;;;;;;;27.69;27.50;98619.44;4965387;28;20473;-80
2021/10/19 10:13:17;;;;;;;16.17;8.38;;;;;;;25.28;30.53;98626.94;4956341;28;20758;-78
2021/10/19 10:15:43;;;;;;;9.45;6.45;;;;;;;23.66;32.43;98635.28;4943028;28;20046;-80
2021/10/19 10:18:11;;;;;;;20.77;7.20;;;;;;;22.91;33.43;98635.31;4972520;28;20089;-79
2021/10/19 10:20:37;;;;;;;16.42;7.07;;;;;;;22.17;35.22;98637.69;4969204;28;20035;-78
2021/10/19 10:23:15;;;;;;;10.15;6.30;;;;;;;21.96;36.32;98640.53;4949690;28;20058;-79
2021/10/19 10:25:42;;;;;;;16.90;9.38;;;;;;;21.48;37.02;98639.44;4971860;28;20035;-79
2021/10/19 10:28:26;;;;;;;16.70;8.70;;;;;;;22.38;36.04;98643.91;4974844;28;20532;-78
2021/10/19 10:30:53;;;;;;;13.32;7.05;;;;;;;23.14;34.04;98642.16;4958553;28;20018;-79
2021/10/19 10:33:34;;;;;;;11.52;6.65;;;;;;;22.84;34.58;98635.03;4968675;28;20034;-81
2021/10/19 10:36:10;;;;;;;10.38;7.90;;;;;;;21.97;36.71;98634.06;4974361;28;20069;-79
2021/10/19 10:38:38;;;;;;;12.75;6.35;;;;;;;20.95;38.37;98639.53;4974257;28;20034;-78
2021/10/19 10:41:13;;;;;;;11.05;5.80;;;;;;;21.04;38.63;98636.00;4974438;28;20089;-80
2021/10/19 10:43:39;;;;;;;12.60;5.95;;;;;;;20.95;38.43;98642.25;4970721;28;20038;-80
2021/10/19 10:46:19;;;;;;;12.93;5.88;;;;;;;20.71;38.66;98636.22;4958379;28;20030;-80
2021/10/19 10:48:45;;;;;;;13.43;6.13;;;;;;;20.29;39.28;98637.13;4975074;28;20037;-80
2021/10/19 10:51:13;;;;;;;13.10;6.10;;;;;;;19.84;39.08;98642.63;4953102;28;20057;-80
2021/10/19 10:53:46;;;;;;;8.02;6.10;;;;;;;19.40;39.14;98638.13;4957030;28;20039;-79
2021/10/19 10:56:13;;;;;;;9.38;6.03;;;;;;;19.31;38.78;98636.09;4978539;28;20529;-79
2021/10/19 10:58:40;;;;;;;8.57;5.88;;;;;;;19.41;40.60;98642.53;4977690;28;20460;-79
2021/10/19 11:01:13;;;;;;;8.25;6.00;;;;;;;18.83;40.76;98645.38;4993782;28;20072;-78
2021/10/19 11:03:39;;;;;;;11.35;5.90;;;;;;;18.99;40.44;98636.91;5009897;28;20113;-79
2021/10/19 11:06:05;;;;;;;9.30;6.03;;;;;;;18.87;40.90;98645.03;4994061;28;20412;-78
2021/10/19 11:08:33;;;;;;;12.77;6.28;;;;;;;18.98;42.29;98648.75;4977809;28;20030;-80
2021/10/19 11:11:12;;;;;;;11.57;5.63;;;;;;;19.22;41.25;98641.41;4981812;28;20083;-78
2021/10/19 11:13:46;;;;;;;11.15;6.10;;;;;;;19.18;40.94;98634.47;4981418;28;20034;-80
2021/10/19 11:16:12;;;;;;;16.80;6.30;;;;;;;19.36;41.39;98630.28;5013912;28;20029;-78
2021/10/19 11:18:37;;;;;;;10.27;5.50;;;;;;;19.46;41.11;98631.31;4981422;28;20034;-80
2021/10/19 11:21:05;;;;;;;10.40;6.05;;;;;;;19.41;40.21;98631.69;4997619;28;20121;-79
2021/10/19 11:23:31;;;;;;;11.25;6.15;;;;;;;18.88;40.92;98627.78;4978241;28;20037;-78
2021/10/19 11:25:59;;;;;;;17.63;6.65;;;;;;;18.44;43.57;98638.44;4981228;28;20021;-78
2021/10/19 11:28:25;;;;;;;18.80;6.07;;;;;;;18.45;44.12;98648.31;4981259;28;20453;-78
2021/10/19 11:30:50;;;;;;;17.85;7.45;;;;;;;18.52;44.53;98640.63;4981239;28;20022;-78
2021/10/19 11:33:16;;;;;;;14.38;6.85;;;;;;;18.72;44.28;98643.53;4981116;28;20029;-78
2021/10/19 11:35:42;;;;;;;14.13;7.18;;;;;;;18.71;43.97;98638.19;4980889;28;20083;-81
2021/10/19 11:38:07;;;;;;;15.65;7.00;;;;;;;18.87;43.96;98644.16;4981233;28;20136;-80
2021/10/19 11:40:36;;;;;;;17.60;7.18;;;;;;;18.99;44.17;98642.34;4997391;28;20461;-78
2021/10/19 11:43:02;;;;;;;13.15;6.30;;;;;;;18.77;43.57;98633.16;4977776;28;20025;-79
2021/10/19 11:45:29;;;;;;;11.18;6.72;;;;;;;18.65;44.78;98641.38;4998091;28;20022;-80
2021/10/19 11:48:00;;;;;;;24.67;7.15;;;;;;;18.39;45.94;98643.38;4996998;28;20527;-79
2021/10/19 11:50:31;;;;;;;11.95;6.25;;;;;;;18.51;46.15;98631.63;4976743;28;20037;-79
2021/10/19 11:52:57;;;;;;;11.67;6.37;;;;;;;18.45;44.51;98626.63;4980391;28;20492;-80
2021/10/19 11:55:23;;;;;;;8.57;5.90;;;;;;;18.35;43.90;98631.03;4980424;28;20524;-77
2021/10/19 11:57:50;;;;;;;17.05;6.88;;;;;;;18.19;45.18;98633.16;4996794;28;20033;-78
2021/10/19 12:00:17;;;;;;;17.38;8.20;;;;;;;18.26;45.44;98627.19;5014256;28;20018;-79
2021/10/19 12:02:56;;;;;;;14.30;7.40;;;;;;;18.45;44.74;98621.22;4980314;28;20025;-79
2021/10/19 12:05:23;;;;;;;10.77;6.95;;;;;;;18.69;45.09;98624.78;4996830;28;20037;-79
2021/10/19 12:07:50;;;;;;;13.88;6.57;;;;;;;18.87;44.93;98622.47;4996552;28;20021;-79
2021/10/19 12:10:19;;;;;;;10.25;6.60;;;;;;;18.43;42.86;98607.78;4965896;28;20034;-79
2021/10/19 12:12:53;;;;;;;11.10;7.07;;;;;;;18.41;43.66;98606.19;4996542;28;20036;-79
2021/10/19 12:15:22;;;;;;;17.70;8.02;;;;;;;18.82;44.34;98625.56;4996843;28;20033;-80
2021/10/19 12:17:55;;;;;;;30.88;13.15;;;;;;;19.14;43.47;98614.00;4980187;28;20500;-79
2021/10/19 12:20:21;;;;;;;16.75;8.45;;;;;;;19.43;43.73;98605.31;4979451;28;20030;-79
2021/10/19 12:22:47;;;;;;;14.13;7.30;;;;;;;19.50;42.55;98602.97;4996561;28;20060;-79
2021/10/19 12:25:13;;;;;;;11.18;6.40;;;;;;;19.54;41.83;98607.13;4976980;28;20466;-79
2021/10/19 12:27:39;;;;;;;11.65;6.38;;;;;;;20.06;41.22;98603.69;4996806;28;20492;-79
2021/10/19 12:30:16;;;;;;;12.60;5.88;;;;;;;20.21;39.93;98596.97;4979653;28;20046;-79
2021/10/19 12:32:42;;;;;;;10.60;6.03;;;;;;;19.87;40.35;98585.34;4980109;28;20400;-79
2021/10/19 12:35:12;;;;;;;7.60;5.70;;;;;;;20.27;39.79;98582.91;4995808;28;20030;-79
2021/10/19 12:37:39;;;;;;;9.68;6.00;;;;;;;20.64;38.62;98582.50;4979965;28;20065;-79
2021/10/19 12:40:11;;;;;;;13.27;5.90;;;;;;;20.47;39.11;98578.50;4979787;28;20033;-79
2021/10/19 12:42:36;;;;;;;7.93;5.88;;;;;;;20.42;39.67;98586.19;4996212;28;20026;-80
2021/10/19 12:45:03;;;;;;;7.07;5.63;;;;;;;20.69;39.21;98575.66;4995754;28;20048;-79
2021/10/19 12:47:28;;;;;;;33.63;15.80;;;;;;;21.12;37.88;98575.50;4996012;28;20497;-79
2021/10/19 12:49:54;;;;;;;15.38;8.20;;;;;;;22.04;37.64;98582.59;4978556;28;20042;-80
2021/10/19 12:52:21;;;;;;;20.05;7.75;;;;;;;23.07;35.47;98565.44;4983162;28;20084;-78
2021/10/19 12:54:46;;;;;;;10.95;7.57;;;;;;;24.46;32.94;98571.63;4985305;28;20199;-79
2021/10/19 12:57:14;;;;;;;8.82;5.88;;;;;;;25.02;31.68;98558.44;4987489;28;20084;-79
2021/10/19 12:59:41;;;;;;;9.65;5.47;;;;;;;24.60;31.95;98555.53;4999773;28;20034;-80
2021/10/19 13:02:07;;;;;;;13.52;6.93;;;;;;;24.46;32.43;98558.81;4972530;28;20028;-80
2021/10/19 13:04:33;;;;;;;13.25;5.85;;;;;;;23.60;33.85;98571.16;4995592;28;20030;-79
2021/10/19 13:06:59;;;;;;;12.48;6.32;;;;;;;22.19;35.77;98564.81;4995380;28;20030;-79
2021/10/19 13:09:25;;;;;;;10.38;6.38;;;;;;;21.02;38.35;98582.72;4979426;28;20409;-79
2021/10/19 13:11:51;;;;;;;13.70;6.88;;;;;;;20.62;39.42;98588.06;4995554;28;20029;-80
2021/10/19 13:14:17;;;;;;;22.63;6.90;;;;;;;20.29;40.80;98599.09;4979392;28;20037;-79
2021/10/19 13:16:43;;;;;;;15.10;7.18;;;;;;;19.90;41.77;98585.09;4995518;28;20025;-79
2021/10/19 13:19:09;;;;;;;14.88;7.63;;;;;;;19.86;42.10;98597.22;4995910;28;20096;-79
2021/10/19 13:21:35;;;;;;;15.38;7.45;;;;;;;19.40;42.12;98588.41;4995425;28;20022;-80
2021/10/19 13:24:00;;;;;;;13.65;7.88;;;;;;;19.02;42.68;98606.84;4979741;28;20040;-81
2021/10/19 13:26:26;;;;;;;16.10;9.05;;;;;;;18.76;43.09;98606.19;4995669;28;20030;-80